createdAt,value
2022-08-07T00:02:35.457Z,15.66
2022-08-07T00:04:06.182Z,15.66
2022-08-07T00:06:36.307Z,15.58
2022-08-07T00:09:17.018Z,15.58
2022-08-07T00:11:55.572Z,15.53
2022-08-07T00:14:30.194Z,15.52
2022-08-07T00:17:02.251Z,15.48
2022-08-07T00:19:34.034Z,15.47
2022-08-07T00:22:24.428Z,15.44
2022-08-07T00:25:07.315Z,15.45
2022-08-07T00:27:53.708Z,15.39
2022-08-07T00:30:27.267Z,15.34
2022-08-07T00:32:56.154Z,15.30
2022-08-07T00:35:24.092Z,15.25
2022-08-07T00:37:51.217Z,15.24
2022-08-07T00:40:36.281Z,15.21
2022-08-07T00:43:09.939Z,15.13
2022-08-07T00:45:38.829Z,15.12
2022-08-07T00:48:09.949Z,15.04
2022-08-07T00:50:43.884Z,15.03
2022-08-07T00:53:16.849Z,15.01
2022-08-07T00:56:00.678Z,15.03
2022-08-07T00:58:30.499Z,15.04
2022-08-07T01:00:57.410Z,15.05
2022-08-07T01:03:55.707Z,15.08
2022-08-07T01:06:11.201Z,15.09
2022-08-07T01:08:51.273Z,15.03
2022-08-07T01:12:04.872Z,15.01
2022-08-07T01:14:08.067Z,14.96
2022-08-07T01:16:37.141Z,14.95
2022-08-07T01:19:18.239Z,14.97
2022-08-07T01:21:49.596Z,14.99
2022-08-07T01:24:22.297Z,15.01
2022-08-07T01:26:54.336Z,14.98
2022-08-07T01:29:28.014Z,15.01
2022-08-07T01:31:59.425Z,15.01
2022-08-07T01:34:31.187Z,15.01
2022-08-07T01:37:01.017Z,14.97
2022-08-07T01:39:41.154Z,14.99
2022-08-07T01:42:37.772Z,14.96
2022-08-07T01:45:09.869Z,14.95
2022-08-07T01:48:18.255Z,14.89
2022-08-07T01:50:32.104Z,14.82
2022-08-07T01:53:02.141Z,14.80
2022-08-07T01:55:47.409Z,14.73
2022-08-07T01:58:29.370Z,14.74
2022-08-07T02:01:59.259Z,14.69
2022-08-07T02:04:18.927Z,14.73
2022-08-07T02:06:54.051Z,14.73
2022-08-07T02:09:52.428Z,14.74
2022-08-07T02:12:18.735Z,14.74
2022-08-07T02:14:56.830Z,14.78
2022-08-07T02:17:34.462Z,14.85
2022-08-07T02:20:09.883Z,14.89
2022-08-07T02:22:46.240Z,14.84
2022-08-07T02:25:17.644Z,14.82
2022-08-07T02:27:55.651Z,14.86
2022-08-07T02:30:24.430Z,14.80
2022-08-07T02:33:01.021Z,14.78
2022-08-07T02:36:29.619Z,14.78
2022-08-07T02:38:32.276Z,14.77
2022-08-07T02:41:04.281Z,14.78
2022-08-07T02:43:39.512Z,14.82
2022-08-07T02:46:08.546Z,14.86
2022-08-07T02:48:37.867Z,14.87
2022-08-07T02:51:29.096Z,14.88
2022-08-07T02:54:01.642Z,14.83
2022-08-07T02:56:33.039Z,14.77
2022-08-07T02:59:03.921Z,14.83
2022-08-07T03:01:35.647Z,14.87
2022-08-07T03:04:12.614Z,14.80
2022-08-07T03:06:48.235Z,14.83
2022-08-07T03:09:44.556Z,14.81
2022-08-07T03:12:21.942Z,14.82
2022-08-07T03:14:52.444Z,14.83
2022-08-07T03:17:20.238Z,14.80
2022-08-07T03:19:54.561Z,14.80
2022-08-07T03:22:24.134Z,14.81
2022-08-07T03:24:57.180Z,14.84
2022-08-07T03:27:30.010Z,14.79
2022-08-07T03:29:59.536Z,14.84
2022-08-07T03:32:33.308Z,14.93
2022-08-07T03:35:17.711Z,15.07
2022-08-07T03:37:55.295Z,15.11
2022-08-07T03:40:30.986Z,15.00
2022-08-07T03:43:13.545Z,15.00
2022-08-07T03:45:48.434Z,15.15
2022-08-07T03:48:21.609Z,15.19
2022-08-07T03:50:52.196Z,15.13
2022-08-07T03:54:00.790Z,15.14
2022-08-07T03:56:32.767Z,15.10
2022-08-07T03:59:08.571Z,15.13
2022-08-07T04:01:46.422Z,15.17
2022-08-07T04:04:17.859Z,15.17
2022-08-07T04:06:50.702Z,15.18
2022-08-07T04:09:19.710Z,15.14
2022-08-07T04:12:23.385Z,15.12
2022-08-07T04:14:43.799Z,15.21
2022-08-07T04:17:21.033Z,15.21
2022-08-07T04:19:52.465Z,15.29
2022-08-07T04:22:29.091Z,15.37
2022-08-07T04:25:01.179Z,15.37
2022-08-07T04:27:35.598Z,15.40
2022-08-07T04:30:11.923Z,15.56
2022-08-07T04:32:58.147Z,15.72
2022-08-07T04:35:35.508Z,15.71
2022-08-07T04:38:09.025Z,15.78
2022-08-07T04:40:51.401Z,15.79
2022-08-07T04:43:53.560Z,15.85
2022-08-07T04:47:04.574Z,16.00
2022-08-07T04:49:58.120Z,16.07
2022-08-07T04:52:56.184Z,16.13
2022-08-07T04:58:13.074Z,16.15
2022-08-07T04:59:17.004Z,16.23
2022-08-07T05:01:44.840Z,16.34
2022-08-07T05:04:53.589Z,16.45
2022-08-07T05:07:36.887Z,16.49
2022-08-07T05:10:11.016Z,16.49
2022-08-07T05:13:09.999Z,16.53
2022-08-07T05:15:50.841Z,16.29
2022-08-07T05:18:29.603Z,16.09
2022-08-07T05:21:02.139Z,16.26
2022-08-07T05:23:53.334Z,16.18
2022-08-07T05:26:24.142Z,15.99
2022-08-07T05:29:04.571Z,15.86
2022-08-07T05:31:38.529Z,15.78
2022-08-07T05:34:15.856Z,15.70
2022-08-07T05:36:48.834Z,15.72
2022-08-07T05:40:14.033Z,15.92
2022-08-07T05:42:16.972Z,16.22
2022-08-07T05:45:14.662Z,16.38
2022-08-07T05:48:01.887Z,16.28
2022-08-07T05:50:35.642Z,16.45
2022-08-07T05:53:06.750Z,16.18
2022-08-07T05:56:03.719Z,16.10
2022-08-07T05:58:37.669Z,16.54
2022-08-07T06:01:12.193Z,16.46
2022-08-07T06:03:56.438Z,16.66
2022-08-07T06:06:29.760Z,16.58
2022-08-07T06:09:04.557Z,16.73
2022-08-07T06:11:34.757Z,15.96
2022-08-07T06:14:11.763Z,16.26
2022-08-07T06:16:50.151Z,16.83
2022-08-07T06:19:47.465Z,17.19
2022-08-07T06:22:14.461Z,17.39
2022-08-07T06:24:52.610Z,17.23
2022-08-07T06:28:00.305Z,17.08
2022-08-07T06:30:31.784Z,17.37
2022-08-07T06:33:01.215Z,16.94
2022-08-07T06:35:39.171Z,16.93
2022-08-07T06:38:20.269Z,16.64
2022-08-07T06:40:51.227Z,16.33
2022-08-07T06:43:23.564Z,16.51
2022-08-07T06:46:12.912Z,16.14
2022-08-07T06:48:42.119Z,16.32
2022-08-07T06:51:31.170Z,16.84
2022-08-07T06:55:29.404Z,16.11
2022-08-07T06:56:54.559Z,16.30
2022-08-07T07:00:11.760Z,16.36
2022-08-07T07:02:48.777Z,16.22
2022-08-07T07:05:13.023Z,16.16
2022-08-07T07:08:00.127Z,16.06
2022-08-07T07:10:33.485Z,16.11
2022-08-07T07:13:07.975Z,16.52
2022-08-07T07:15:43.164Z,16.80
2022-08-07T07:18:48.225Z,16.50
2022-08-07T07:21:40.577Z,16.27
2022-08-07T07:24:19.481Z,16.42
2022-08-07T07:26:52.060Z,16.57
2022-08-07T07:29:40.151Z,16.84
2022-08-07T07:32:13.953Z,17.03
2022-08-07T07:34:46.640Z,17.04
2022-08-07T07:37:21.974Z,16.47
2022-08-07T07:40:10.415Z,17.13
2022-08-07T07:42:51.010Z,17.29
2022-08-07T07:46:38.538Z,16.49
2022-08-07T07:48:35.063Z,16.91
2022-08-07T07:51:07.698Z,17.39
2022-08-07T07:53:51.302Z,17.19
2022-08-07T07:56:29.646Z,17.23
2022-08-07T07:59:04.296Z,16.64
2022-08-07T08:02:05.164Z,16.77
2022-08-07T08:04:27.610Z,17.01
2022-08-07T08:06:55.170Z,16.82
2022-08-07T08:09:29.480Z,16.84
2022-08-07T08:12:01.833Z,17.42
2022-08-07T08:14:34.166Z,17.01
2022-08-07T08:17:55.934Z,17.04
2022-08-07T08:20:16.977Z,16.90
2022-08-07T08:23:08.366Z,16.45
2022-08-07T08:25:56.902Z,17.30
2022-08-07T08:28:37.964Z,17.04
2022-08-07T08:31:07.753Z,17.19
2022-08-07T08:33:49.019Z,17.38
2022-08-07T08:36:25.727Z,17.12
2022-08-07T08:38:57.766Z,17.50
2022-08-07T08:41:58.981Z,17.55
2022-08-07T08:44:44.736Z,17.40
2022-08-07T08:47:52.797Z,17.49
2022-08-07T08:50:34.996Z,17.37
2022-08-07T08:53:19.739Z,17.81
2022-08-07T08:56:04.576Z,17.33
2022-08-07T08:58:54.323Z,17.40
2022-08-07T09:01:21.337Z,17.15
2022-08-07T09:04:11.201Z,17.70
2022-08-07T09:06:58.291Z,17.50
2022-08-07T09:09:57.224Z,17.64
2022-08-07T09:12:37.994Z,18.08
2022-08-07T09:16:23.066Z,17.80
2022-08-07T09:18:22.810Z,17.73
2022-08-07T09:21:57.905Z,17.42
2022-08-07T09:24:58.790Z,17.09
2022-08-07T09:28:00.514Z,17.51
2022-08-07T09:30:54.273Z,17.75
2022-08-07T09:33:57.190Z,18.09
2022-08-07T09:36:35.657Z,17.43
2022-08-07T09:39:27.426Z,17.06
2022-08-07T09:42:06.061Z,16.97
2022-08-07T09:47:50.658Z,17.09
2022-08-07T09:48:30.203Z,17.69
2022-08-07T09:52:15.526Z,18.12
2022-08-07T09:54:27.269Z,17.89
2022-08-07T09:57:17.990Z,18.11
2022-08-07T10:00:14.710Z,18.17
2022-08-07T10:03:08.433Z,17.93
2022-08-07T10:06:24.268Z,18.55
2022-08-07T10:09:34.273Z,18.21
2022-08-07T10:12:21.917Z,18.66
2022-08-07T10:15:05.389Z,18.83
2022-08-07T10:18:02.520Z,18.53
2022-08-07T10:21:02.490Z,18.21
2022-08-07T10:24:05.921Z,17.92
2022-08-07T10:26:51.819Z,18.20
2022-08-07T10:29:59.172Z,18.89
2022-08-07T10:33:08.382Z,19.00
2022-08-07T10:35:55.755Z,19.03
2022-08-07T10:38:35.754Z,18.97
2022-08-07T10:41:51.652Z,18.37
2022-08-07T10:44:37.942Z,18.59
2022-08-07T10:47:26.901Z,18.36
2022-08-07T10:50:12.538Z,17.97
2022-08-07T10:52:51.429Z,17.74
2022-08-07T10:56:30.816Z,17.69
2022-08-07T10:59:10.152Z,17.27
2022-08-07T11:02:12.343Z,17.28
2022-08-07T11:05:35.931Z,17.69
2022-08-07T11:08:42.607Z,17.34
2022-08-07T11:11:15.736Z,16.95
2022-08-07T11:14:57.031Z,16.68
2022-08-07T11:17:07.389Z,17.26
2022-08-07T11:19:43.365Z,17.37
2022-08-07T11:22:26.554Z,17.51
2022-08-07T11:25:19.806Z,17.22
2022-08-07T11:28:15.292Z,17.69
2022-08-07T11:30:51.299Z,17.16
2022-08-07T11:33:53.710Z,16.99
2022-08-07T11:36:36.984Z,16.98
2022-08-07T11:39:19.996Z,17.14
2022-08-07T11:42:05.493Z,17.03
2022-08-07T11:44:52.274Z,17.35
2022-08-07T11:48:06.088Z,17.28
2022-08-07T11:50:59.919Z,16.74
2022-08-07T11:53:43.111Z,16.72
2022-08-07T11:57:04.852Z,17.02
2022-08-07T12:00:11.300Z,16.63
2022-08-07T12:02:55.363Z,16.73
2022-08-07T12:05:47.101Z,16.97
2022-08-07T12:08:34.649Z,17.19
2022-08-07T12:11:20.718Z,17.45
2022-08-07T12:14:19.179Z,17.02
2022-08-07T12:16:54.777Z,17.24
2022-08-07T12:20:10.325Z,17.33
2022-08-07T12:23:09.411Z,17.84
2022-08-07T12:26:02.822Z,17.50
2022-08-07T12:28:53.189Z,17.68
2022-08-07T12:32:03.851Z,17.35
2022-08-07T12:34:36.037Z,17.54
2022-08-07T12:37:11.142Z,17.53
2022-08-07T12:39:51.387Z,17.37
2022-08-07T12:42:27.929Z,17.18
2022-08-07T12:44:59.130Z,17.01
2022-08-07T12:48:04.232Z,17.23
2022-08-07T12:51:17.269Z,17.35
2022-08-07T12:54:02.876Z,17.61
2022-08-07T12:56:55.252Z,17.17
2022-08-07T12:59:33.389Z,17.76
2022-08-07T13:02:33.164Z,17.69
2022-08-07T13:05:01.167Z,17.40
2022-08-07T13:08:14.673Z,17.11
2022-08-07T13:11:07.359Z,17.58
2022-08-07T13:13:53.978Z,17.68
2022-08-07T13:16:32.542Z,17.92
2022-08-07T13:19:21.690Z,17.92
2022-08-07T13:22:19.969Z,18.06
2022-08-07T13:25:00.436Z,17.91
2022-08-07T13:28:11.206Z,18.25
2022-08-07T13:30:39.905Z,18.21
2022-08-07T13:34:14.713Z,18.10
2022-08-07T13:36:25.886Z,18.17
2022-08-07T13:39:11.166Z,18.36
2022-08-07T13:41:48.143Z,18.08
2022-08-07T13:44:26.843Z,18.55
2022-08-07T13:47:02.922Z,18.63
2022-08-07T13:50:35.586Z,18.21
2022-08-07T13:52:32.482Z,18.48
2022-08-07T13:55:10.810Z,18.60
2022-08-07T13:57:48.726Z,18.87
2022-08-07T14:00:50.600Z,18.72
2022-08-07T14:03:28.948Z,18.80
2022-08-07T14:06:12.710Z,18.84
2022-08-07T14:08:45.213Z,18.74
2022-08-07T14:11:19.143Z,18.74
2022-08-07T14:13:56.030Z,18.73
2022-08-07T14:16:33.482Z,18.27
2022-08-07T14:19:03.201Z,18.07
2022-08-07T14:22:03.389Z,17.99
2022-08-07T14:24:37.612Z,17.84
2022-08-07T14:28:09.357Z,17.82
2022-08-07T14:30:11.365Z,17.71
2022-08-07T14:32:56.922Z,17.83
2022-08-07T14:35:44.814Z,17.36
2022-08-07T14:38:26.336Z,17.51
2022-08-07T14:41:00.817Z,17.60
2022-08-07T14:43:55.518Z,17.72
2022-08-07T14:46:30.721Z,16.95
2022-08-07T14:49:55.928Z,17.08
2022-08-07T14:54:41.984Z,17.15
2022-08-07T14:57:18.716Z,17.03
2022-08-07T15:00:03.490Z,17.46
2022-08-07T15:05:23.395Z,17.39
2022-08-07T15:16:33.626Z,17.97
2022-08-07T15:19:05.624Z,18.32
2022-08-07T15:21:59.463Z,18.19
2022-08-07T15:25:15.912Z,18.34
2022-08-07T15:27:25.895Z,18.00
2022-08-07T15:33:01.402Z,18.25
2022-08-07T15:36:01.599Z,18.40
2022-08-07T15:38:30.694Z,18.07
2022-08-07T15:41:23.652Z,18.34
2022-08-07T15:44:00.551Z,18.11
2022-08-07T15:46:32.284Z,18.04
2022-08-07T15:49:13.181Z,18.27
2022-08-07T15:54:39.291Z,18.10
2022-08-07T15:57:39.241Z,18.32
2022-08-07T16:00:04.369Z,18.31
2022-08-07T16:02:41.353Z,18.03
2022-08-07T16:05:18.086Z,18.10
2022-08-07T16:08:33.271Z,18.37
2022-08-07T16:10:48.728Z,18.12
2022-08-07T16:13:57.806Z,18.06
2022-08-07T16:16:47.540Z,17.77
2022-08-07T16:19:59.768Z,17.72
2022-08-07T16:22:54.516Z,17.75
2022-08-07T16:25:23.077Z,17.01
2022-08-07T16:29:18.863Z,16.87
2022-08-07T16:31:51.868Z,17.12
2022-08-07T16:34:39.555Z,17.11
2022-08-07T16:38:06.628Z,17.14
2022-08-07T16:40:05.641Z,16.97
2022-08-07T16:42:44.776Z,17.10
2022-08-07T16:46:33.756Z,17.24
2022-08-07T16:49:04.374Z,17.47
2022-08-07T16:52:06.527Z,17.60
2022-08-07T16:55:13.048Z,17.57
2022-08-07T16:58:03.980Z,17.85
2022-08-07T17:00:40.926Z,17.72
2022-08-07T17:03:17.539Z,17.81
2022-08-07T17:06:29.909Z,18.07
2022-08-07T17:09:14.409Z,18.48
2022-08-07T17:12:33.873Z,18.52
2022-08-07T17:15:07.179Z,18.39
2022-08-07T17:17:48.571Z,17.99
2022-08-07T17:20:21.458Z,18.11
2022-08-07T17:23:12.856Z,18.13
2022-08-07T17:26:29.953Z,17.83
2022-08-07T17:28:58.040Z,17.88
2022-08-07T17:32:02.691Z,18.13
2022-08-07T17:35:50.459Z,18.38
2022-08-07T17:38:09.724Z,18.56
2022-08-07T17:40:56.830Z,18.34
2022-08-07T17:44:01.608Z,18.43
2022-08-07T17:46:52.453Z,18.46
2022-08-07T17:49:30.281Z,18.56
2022-08-07T17:52:30.726Z,18.58
2022-08-07T17:55:14.205Z,18.75
2022-08-07T17:58:07.182Z,18.83
2022-08-07T18:00:49.022Z,18.62
2022-08-07T18:03:28.644Z,18.56
2022-08-07T18:06:36.691Z,18.45
2022-08-07T18:09:05.953Z,18.18
2022-08-07T18:12:06.877Z,18.00
2022-08-07T18:14:46.404Z,17.84
2022-08-07T18:18:46.130Z,17.94
2022-08-07T18:21:12.801Z,17.93
2022-08-07T18:23:57.096Z,17.86
2022-08-07T18:26:38.142Z,17.84
2022-08-07T18:30:07.343Z,17.99
2022-08-07T18:32:28.554Z,17.91
2022-08-07T18:35:30.088Z,17.96
2022-08-07T18:38:55.823Z,17.90
2022-08-07T18:41:46.005Z,17.76
2022-08-07T18:45:39.916Z,17.51
2022-08-07T18:48:01.451Z,17.77
2022-08-07T18:50:45.974Z,17.92
2022-08-07T18:53:39.651Z,17.98
2022-08-07T18:56:31.640Z,18.05
2022-08-07T18:59:57.854Z,18.03
2022-08-07T19:02:34.529Z,18.12
2022-08-07T19:05:25.717Z,18.17
2022-08-07T19:08:33.053Z,18.19
2022-08-07T19:11:15.483Z,18.24
2022-08-07T19:14:00.703Z,18.23
2022-08-07T19:17:04.571Z,18.27
2022-08-07T19:19:46.507Z,18.26
2022-08-07T19:22:30.779Z,18.22
2022-08-07T19:25:05.764Z,18.18
2022-08-07T19:28:29.554Z,18.13
2022-08-07T19:31:05.544Z,18.16
2022-08-07T19:33:15.795Z,18.05
2022-08-07T19:35:53.732Z,18.06
2022-08-07T19:38:21.647Z,18.01
2022-08-07T19:40:51.846Z,17.96
2022-08-07T19:43:50.224Z,17.89
2022-08-07T19:46:10.779Z,17.84
2022-08-07T19:48:42.732Z,17.84
2022-08-07T19:51:19.315Z,17.82
2022-08-07T19:54:34.265Z,17.83
2022-08-07T19:58:02.350Z,17.78
2022-08-07T19:59:39.949Z,17.70
2022-08-07T20:02:19.267Z,17.76
2022-08-07T20:04:50.090Z,17.78
2022-08-07T20:07:23.980Z,17.77
2022-08-07T20:10:35.582Z,17.84
2022-08-07T20:12:56.776Z,17.85
2022-08-07T20:15:33.019Z,17.86
2022-08-07T20:18:14.680Z,17.84
2022-08-07T20:20:46.890Z,17.88
2022-08-07T20:23:32.825Z,17.92
2022-08-07T20:26:09.896Z,17.93
2022-08-07T20:28:39.906Z,17.98
2022-08-07T20:31:21.249Z,17.99
2022-08-07T20:33:56.707Z,17.99
2022-08-07T20:36:27.219Z,17.99
2022-08-07T20:39:00.436Z,18.01
2022-08-07T20:41:38.085Z,18.05
2022-08-07T20:44:12.577Z,17.97
2022-08-07T20:46:44.075Z,18.02
2022-08-07T20:49:58.311Z,18.04
2022-08-07T20:52:07.834Z,18.15
2022-08-07T20:54:41.666Z,18.08
2022-08-07T20:57:25.936Z,17.91
2022-08-07T21:00:06.530Z,17.83
2022-08-07T21:03:00.678Z,17.86
2022-08-07T21:05:50.739Z,17.94
2022-08-07T21:08:38.112Z,17.93
2022-08-07T21:11:14.456Z,17.99
2022-08-07T21:14:16.416Z,17.92
2022-08-07T21:16:56.947Z,17.96
2022-08-07T21:19:51.659Z,17.94
2022-08-07T21:22:25.559Z,18.04
2022-08-07T21:25:29.793Z,17.99
2022-08-07T21:28:16.881Z,18.01
2022-08-07T21:31:08.758Z,18.02
2022-08-07T21:33:45.521Z,18.13
2022-08-07T21:36:36.106Z,18.16
2022-08-07T21:39:47.691Z,18.17
2022-08-07T21:42:48.881Z,18.16
2022-08-07T21:46:08.200Z,18.24
2022-08-07T21:48:55.910Z,18.35
2022-08-07T21:51:32.366Z,18.37
2022-08-07T21:54:11.152Z,18.32
2022-08-07T21:56:49.358Z,18.27
2022-08-07T21:59:16.086Z,18.24
2022-08-07T22:02:10.747Z,18.26
2022-08-07T22:04:51.323Z,18.39
2022-08-07T22:07:48.601Z,18.17
2022-08-07T22:10:17.713Z,17.76
2022-08-07T22:12:55.686Z,17.69
2022-08-07T22:16:38.451Z,17.90
2022-08-07T22:18:24.059Z,17.94
2022-08-07T22:22:02.590Z,17.90
2022-08-07T22:24:33.003Z,17.85
2022-08-07T22:27:33.882Z,17.92
2022-08-07T22:30:12.760Z,17.97
2022-08-07T22:33:02.607Z,17.76
2022-08-07T22:35:39.777Z,17.66
2022-08-07T22:38:20.573Z,17.69
2022-08-07T22:41:07.440Z,17.58
2022-08-07T22:43:52.036Z,17.54
2022-08-07T22:47:06.509Z,17.52
2022-08-07T22:49:59.518Z,17.47
2022-08-07T22:52:50.924Z,17.42
2022-08-07T22:55:29.994Z,17.44
2022-08-07T22:58:28.194Z,17.50
2022-08-07T23:01:10.140Z,17.64
2022-08-07T23:03:57.237Z,17.68
2022-08-07T23:06:55.066Z,17.75
2022-08-07T23:10:05.322Z,17.86
2022-08-07T23:12:53.578Z,17.90
2022-08-07T23:16:04.665Z,17.88
2022-08-07T23:18:42.370Z,18.01
2022-08-07T23:21:21.015Z,18.02
2022-08-07T23:24:05.534Z,18.03
2022-08-07T23:26:50.235Z,17.91
2022-08-07T23:30:38.324Z,17.96
2022-08-07T23:34:23.216Z,17.97
2022-08-07T23:36:17.327Z,17.99
2022-08-07T23:38:54.550Z,18.08
2022-08-07T23:42:01.457Z,18.10
2022-08-07T23:44:46.609Z,18.04
2022-08-07T23:47:26.846Z,17.97
2022-08-07T23:50:16.361Z,18.02
2022-08-07T23:53:15.289Z,18.04
2022-08-07T23:55:57.786Z,18.08
2022-08-07T23:58:46.613Z,18.01
